Terminal Aerodrome Forecast
Issued by NWS Pocatello, ID

Home | Current Version | Previous Version | Text Only | Print | Product List | Glossary On
Versions: 1 2 3 4 5 6 7 8 9 10 11 12 13 14 15 16 17 18 19 20 21
000
FTUS45 KPIH 250520
TAFBYI
TAF
KBYI 250520Z 2506/2606 VRB06KT P6SM BKN110
     FM251100 VRB06KT 5SM BR SCT002 BKN080
     FM251400 25007KT P6SM BKN100
     FM251900 27010KT P6SM VCTS BKN090CB
     FM260400 23008KT P6SM BKN120=

USA.gov is the U.S. government's official web portal to all federal, state and local government web resources and services.